Terminal Aerodrome Forecast
Issued by NWS Grand Forks, ND

Home | Current Version | Previous Version | Graphics & Text | Print | Product List | Glossary On
Versions: 1 2 3 4 5 6 7 8 9 10 11 12 13 14 15 16 17 18 19 20 21 22 23 24 25
469
FTUS43 KFGF 071044 AAA
TAFGFK
TAF AMD
KGFK 071044Z 0711/0806 29016G21KT P6SM -RASN OVC019
     FM071200 29025G32KT P6SM BKN050
     FM071300 30028G35KT 2SM -SN BKN015
     FM071500 33030G40KT 1/4SM SN BLSN BKN008
     FM080400 34025G35KT 3/4SM BLSN BKN025=

USA.gov is the U.S. government's official web portal to all federal, state and local government web resources and services.